Time;durP1;ratioP1;P1;durP2;ratioP2;P2;SDS_P1;SDS_P2;PMS_P1;PMS_P2;Temp;Humidity;BMP_temperature;BMP_pressure;BME280_temperature;BME280_humidity;BME280_pressure;Samples;Min_cycle;Max_cycle;Signal;HPM_P1;HPM_P2
2021/04/21 00:00:09;;;;;;;9.45;7.15;;;;;;;10.41;52.09;100164.73;1684919;84;21144;-50
2021/04/21 00:02:37;;;;;;;10.43;8.40;;;;;;;10.34;52.66;100161.77;1678940;84;21206;-50
2021/04/21 00:05:06;;;;;;;10.25;8.10;;;;;;;10.27;52.91;100166.22;1695121;84;21171;-67
2021/04/21 00:07:35;;;;;;;10.82;7.37;;;;;;;10.28;53.14;100171.05;1707307;84;21159;-50
2021/04/21 00:10:06;;;;;;;10.55;8.18;;;;;;;10.21;53.58;100170.71;1697124;83;21143;-51
2021/04/21 00:12:34;;;;;;;12.58;8.50;;;;;;;10.15;53.64;100171.68;1678933;85;21310;-67
2021/04/21 00:15:06;;;;;;;10.53;7.92;;;;;;;10.11;53.63;100175.23;1697636;84;21184;-50
2021/04/21 00:17:34;;;;;;;9.60;7.33;;;;;;;10.11;53.67;100176.55;1702400;84;21180;-61
2021/04/21 00:20:02;;;;;;;11.83;9.00;;;;;;;10.11;53.62;100186.61;1697987;82;21618;-50
2021/04/21 00:22:29;;;;;;;13.08;8.90;;;;;;;10.09;53.54;100184.91;1691125;83;21215;-67
2021/04/21 00:24:57;;;;;;;11.48;8.33;;;;;;;10.04;53.62;100188.04;1719264;82;21151;-51
2021/04/21 00:27:27;;;;;;;9.78;7.60;;;;;;;10.00;53.66;100189.82;1714618;83;21272;-50
2021/04/21 00:29:58;;;;;;;9.33;7.47;;;;;;;9.96;53.69;100192.06;1688986;83;21190;-50
2021/04/21 00:32:26;;;;;;;12.15;9.15;;;;;;;9.89;53.80;100189.97;1698006;83;21501;-50
2021/04/21 00:34:57;;;;;;;9.18;7.55;;;;;;;9.91;54.04;100195.22;1717367;83;21171;-67
2021/04/21 00:37:28;;;;;;;11.22;8.85;;;;;;;9.93;54.21;100190.81;1683154;85;21202;-67
2021/04/21 00:39:57;;;;;;;12.47;9.28;;;;;;;9.93;54.25;100193.45;1689176;83;21155;-50
2021/04/21 00:42:56;;;;;;;11.10;8.63;;;;;;;9.96;54.25;100197.32;1708006;83;21185;-67
2021/04/21 00:45:29;;;;;;;12.45;8.80;;;;;;;9.97;54.28;100203.89;1717027;83;21156;-67
2021/04/21 00:48:15;;;;;;;31.00;9.90;;;;;;;9.95;54.27;100203.47;1688934;85;21623;-50
2021/04/21 00:51:06;;;;;;;11.40;9.00;;;;;;;9.92;54.35;100203.08;1698368;83;21187;-50
2021/04/21 00:53:40;;;;;;;11.08;8.20;;;;;;;9.90;54.38;100204.00;1710762;83;21544;-67
2021/04/21 00:56:54;;;;;;;11.35;8.98;;;;;;;9.89;54.46;100201.80;1694639;83;21203;-67
2021/04/21 00:59:51;;;;;;;12.07;8.63;;;;;;;9.89;54.44;100205.74;1693415;83;21166;-67
2021/04/21 01:02:23;;;;;;;12.07;9.05;;;;;;;9.90;54.46;100202.69;1709273;83;21153;-52
2021/04/21 01:04:51;;;;;;;14.28;9.35;;;;;;;9.92;54.27;100207.02;1698310;83;21143;-66
2021/04/21 01:07:20;;;;;;;11.55;8.53;;;;;;;9.89;54.22;100216.25;1688847;85;21145;-49
2021/04/21 01:09:51;;;;;;;11.25;8.78;;;;;;;9.90;54.14;100214.05;1708763;82;21288;-67
2021/04/21 01:12:19;;;;;;;;;;;;;;;9.86;54.02;100213.66;1693605;83;21165;-67
2021/04/21 01:14:50;;;;;;;10.88;8.18;;;;;;;9.81;54.12;100213.73;1692411;83;20281;-67
2021/04/21 01:17:18;;;;;;;11.60;8.43;;;;;;;9.82;54.20;100215.90;1689431;83;21190;-49
2021/04/21 01:20:07;;;;;;;11.88;9.30;;;;;;;9.84;54.16;100214.58;1717603;82;21196;-67
2021/04/21 01:22:46;;;;;;;10.45;8.25;;;;;;;9.88;54.10;100220.23;1708156;83;21590;-66
2021/04/21 01:25:36;;;;;;;12.03;8.78;;;;;;;9.88;53.94;100227.66;1688957;83;21202;-66
2021/04/21 01:28:11;;;;;;;12.17;8.87;;;;;;;9.86;53.83;100220.23;1707546;83;21207;-66
2021/04/21 01:30:43;;;;;;;11.93;9.15;;;;;;;9.46;54.40;100226.81;1711053;84;21123;-66
2021/04/21 01:33:16;;;;;;;11.33;8.78;;;;;;;8.72;56.18;100232.68;1699991;84;21762;-49
2021/04/21 01:36:05;;;;;;;11.22;8.53;;;;;;;8.59;56.55;100237.15;1711359;84;21681;-67
2021/04/21 01:38:33;;;;;;;11.30;8.60;;;;;;;8.53;56.84;100240.69;1710666;84;21201;-49
2021/04/21 01:41:08;;;;;;;13.13;9.28;;;;;;;8.42;56.96;100238.08;1675548;84;21143;-66
2021/04/21 01:43:43;;;;;;;13.90;10.40;;;;;;;8.34;57.32;100232.88;1683580;84;21159;-67
2021/04/21 01:46:12;;;;;;;13.05;10.30;;;;;;;8.31;57.67;100230.73;1702118;84;21163;-49
2021/04/21 01:48:41;;;;;;;14.47;10.35;;;;;;;8.30;57.87;100232.92;1748001;81;21295;-49
2021/04/21 01:51:14;;;;;;;14.07;10.00;;;;;;;8.30;58.00;100228.98;1742997;82;21127;-67
2021/04/21 01:53:50;;;;;;;15.13;10.80;;;;;;;8.30;58.06;100238.16;1748025;81;21159;-67
2021/04/21 01:56:34;;;;;;;13.90;10.90;;;;;;;8.32;58.13;100229.85;1716411;83;21171;-49
2021/04/21 01:59:16;;;;;;;12.47;9.43;;;;;;;8.34;58.15;100234.66;1738873;81;21139;-66
2021/04/21 02:01:50;;;;;;;13.18;9.63;;;;;;;8.32;58.19;100231.16;1718335;83;21135;-49
2021/04/21 02:04:53;;;;;;;13.35;10.28;;;;;;;8.31;58.37;100233.35;1735988;81;21167;-67
2021/04/21 02:08:01;;;;;;;14.83;10.28;;;;;;;8.32;58.45;100235.09;1747420;82;21309;-67
2021/04/21 02:10:40;;;;;;;13.38;10.50;;;;;;;8.31;58.43;100235.97;1718496;82;21296;-67
2021/04/21 02:13:37;;;;;;;13.25;9.38;;;;;;;8.26;58.55;100237.29;1719391;82;21163;-67
2021/04/21 02:16:25;;;;;;;11.78;8.75;;;;;;;8.19;58.62;100239.08;1683681;85;21167;-67
2021/04/21 02:19:19;;;;;;;14.23;10.03;;;;;;;8.14;58.70;100238.69;1719610;82;21471;-67
2021/04/21 02:22:27;;;;;;;14.40;10.48;;;;;;;8.12;58.85;100241.75;1746403;81;21622;-67
2021/04/21 02:25:33;;;;;;;16.20;9.23;;;;;;;8.09;58.97;100236.06;1748219;81;21119;-67
2021/04/21 02:28:34;;;;;;;13.93;10.08;;;;;;;8.10;59.16;100242.20;1746618;82;21306;-48
2021/04/21 02:31:29;;;;;;;14.05;10.55;;;;;;;8.07;59.26;100248.76;1747791;82;21139;-66
2021/04/21 02:34:20;;;;;;;15.32;10.72;;;;;;;8.08;59.43;100253.13;1748396;81;21173;-66
2021/04/21 02:37:10;;;;;;;13.32;9.98;;;;;;;8.00;59.67;100257.06;1746825;81;21565;-48
2021/04/21 02:40:02;;;;;;;13.30;9.48;;;;;;;7.99;59.76;100260.56;1745078;81;21170;-66
2021/04/21 02:42:59;;;;;;;14.47;10.63;;;;;;;7.96;59.75;100260.15;1683824;85;21329;-66
2021/04/21 02:46:00;;;;;;;14.33;10.23;;;;;;;7.95;59.85;100257.09;1722112;81;21282;-67
2021/04/21 02:48:48;;;;;;;14.78;10.70;;;;;;;7.99;59.91;100263.19;1747547;81;21603;-49
2021/04/21 02:51:21;;;;;;;13.22;9.28;;;;;;;7.99;59.91;100263.19;1718739;83;21486;-49
2021/04/21 02:54:06;;;;;;;13.90;9.40;;;;;;;8.00;59.81;100269.75;1725699;81;21570;-67
2021/04/21 02:57:00;;;;;;;13.65;9.98;;;;;;;7.99;59.90;100274.55;1718458;83;21159;-49
2021/04/21 02:59:42;;;;;;;13.00;9.50;;;;;;;7.99;59.90;100276.28;1740927;81;21181;-49
2021/04/21 03:02:33;;;;;;;12.63;8.70;;;;;;;7.97;60.04;100278.04;1724530;81;21099;-66
2021/04/21 03:05:21;;;;;;;13.83;9.83;;;;;;;7.93;60.10;100285.51;1741583;81;21143;-67
2021/04/21 03:08:22;;;;;;;13.78;9.33;;;;;;;7.92;60.18;100289.00;1747739;82;21150;-49
2021/04/21 03:11:22;;;;;;;11.30;9.05;;;;;;;7.94;60.19;100291.19;1748166;81;21163;-66
2021/04/21 03:14:02;;;;;;;11.08;8.33;;;;;;;7.99;60.09;100292.02;1820200;77;22197;-66
2021/04/21 03:16:41;;;;;;;14.78;10.20;;;;;;;7.94;60.16;100299.91;1785218;80;21134;-51
2021/04/21 03:19:11;;;;;;;14.05;9.68;;;;;;;7.92;60.25;100299.03;1760430;81;21178;-68
2021/04/21 03:21:46;;;;;;;17.00;10.48;;;;;;;7.91;60.39;100302.98;1771826;80;21118;-51
2021/04/21 03:24:34;;;;;;;12.00;8.85;;;;;;;7.93;60.38;100307.33;1750638;80;21154;-49
2021/04/21 03:27:04;;;;;;;11.88;9.08;;;;;;;7.96;60.31;100303.39;1758350;81;21186;-68
2021/04/21 03:29:44;;;;;;;14.57;10.10;;;;;;;8.00;60.45;100315.62;1742515;80;21554;-69
2021/04/21 03:32:26;;;;;;;;;;;;;;;8.03;60.43;100314.72;1749139;81;21194;-68
2021/04/21 03:34:55;;;;;;;11.97;8.98;;;;;;;8.07;60.55;100317.77;1746931;81;20244;-67
2021/04/21 03:38:03;;;;;;;12.63;9.05;;;;;;;8.14;60.91;100322.58;1727974;81;21130;-51
2021/04/21 03:40:31;;;;;;;13.08;9.78;;;;;;;8.19;61.01;100329.96;1749917;80;21135;-67
2021/04/21 03:42:59;;;;;;;14.45;10.28;;;;;;;8.25;61.13;100320.77;1739323;81;21174;-66
2021/04/21 03:45:28;;;;;;;17.85;10.28;;;;;;;8.31;61.31;100328.61;1723317;81;21199;-50
2021/04/21 03:47:55;;;;;;;14.98;9.40;;;;;;;8.41;61.37;100329.44;1745321;81;21137;-50
2021/04/21 03:50:24;;;;;;;16.32;9.98;;;;;;;8.51;61.44;100329.44;1745567;81;21179;-67
2021/04/21 03:52:59;;;;;;;15.25;10.43;;;;;;;8.54;61.48;100330.73;1748016;81;21571;-67
2021/04/21 03:55:27;;;;;;;17.98;9.68;;;;;;;8.60;61.49;100332.02;1745701;81;21574;-51
2021/04/21 03:57:59;;;;;;;14.78;10.65;;;;;;;8.68;62.05;100337.23;1749072;80;21122;-51
2021/04/21 04:00:27;;;;;;;15.15;10.95;;;;;;;8.75;61.88;100334.58;1740019;81;21102;-51
2021/04/21 04:03:01;;;;;;;13.50;9.98;;;;;;;8.85;61.97;100341.06;1751392;81;21162;-67
2021/04/21 04:05:46;;;;;;;16.17;10.15;;;;;;;8.97;61.86;100342.77;1750667;81;21283;-67
2021/04/21 04:08:16;;;;;;;17.00;9.78;;;;;;;9.03;61.89;100352.78;1745361;80;21193;-50
2021/04/21 04:10:49;;;;;;;15.30;10.08;;;;;;;9.09;62.00;100353.17;1763730;81;21292;-67
2021/04/21 04:13:17;;;;;;;15.60;10.68;;;;;;;9.23;61.86;100360.52;1758582;81;21107;-68
2021/04/21 04:15:47;;;;;;;12.65;9.98;;;;;;;9.33;61.71;100356.52;1762364;80;21162;-52
2021/04/21 04:18:15;;;;;;;14.28;10.65;;;;;;;9.41;61.68;100356.45;1736410;82;21182;-52
2021/04/21 04:20:44;;;;;;;16.67;11.45;;;;;;;9.51;61.61;100358.13;1728518;82;21094;-67
2021/04/21 04:23:12;;;;;;;18.55;11.38;;;;;;;9.59;61.61;100355.42;1726662;83;21190;-67
2021/04/21 04:25:44;;;;;;;15.30;10.58;;;;;;;9.65;61.64;100361.52;1752445;80;21131;-53
2021/04/21 04:28:13;;;;;;;12.10;10.72;;;;;;;9.73;61.80;100357.50;1741296;82;21126;-53
2021/04/21 04:30:41;;;;;;;13.58;10.28;;;;;;;9.81;61.77;100363.98;1768209;80;21126;-54
2021/04/21 04:33:09;;;;;;;12.23;10.13;;;;;;;9.92;61.71;100357.34;1787120;80;21185;-54
2021/04/21 04:35:38;;;;;;;12.95;10.35;;;;;;;9.91;61.97;100362.16;1761370;80;21107;-68
2021/04/21 04:38:06;;;;;;;14.63;11.22;;;;;;;10.18;61.72;100366.70;1756834;81;21130;-68
2021/04/21 04:40:34;;;;;;;12.43;10.50;;;;;;;11.10;59.37;100367.77;1723068;83;21293;-54
2021/04/21 04:43:02;;;;;;;12.47;10.20;;;;;;;11.29;58.88;100361.77;1715547;83;21136;-67
2021/04/21 04:45:31;;;;;;;14.03;11.18;;;;;;;11.42;58.47;100369.92;1759613;80;21561;-65
2021/04/21 04:48:05;;;;;;;14.47;11.60;;;;;;;11.53;58.33;100368.84;1725703;83;21644;-69
2021/04/21 04:50:32;;;;;;;15.88;12.03;;;;;;;11.71;58.24;100372.94;1736780;82;21300;-54
2021/04/21 04:53:00;;;;;;;12.73;9.98;;;;;;;11.89;58.08;100373.09;1746056;80;21161;-54
2021/04/21 04:55:28;;;;;;;14.43;10.70;;;;;;;12.09;57.69;100374.08;1721225;81;21319;-67
2021/04/21 04:57:57;;;;;;;13.00;10.60;;;;;;;12.25;57.28;100376.41;1683726;83;21183;-53
2021/04/21 05:00:29;;;;;;;13.75;9.45;;;;;;;12.39;57.20;100380.09;1753746;82;21183;-68
2021/04/21 05:03:13;;;;;;;12.73;10.70;;;;;;;12.52;56.95;100386.02;1736076;80;21118;-68
2021/04/21 05:05:44;;;;;;;11.88;8.98;;;;;;;12.66;56.83;100377.81;1736447;81;21606;-68
2021/04/21 05:08:17;;;;;;;11.85;9.58;;;;;;;12.82;56.74;100380.98;1711477;82;21570;-68
2021/04/21 05:11:01;;;;;;;12.23;10.10;;;;;;;12.97;56.08;100382.42;1751521;80;21601;-52
2021/04/21 05:13:50;;;;;;;10.93;9.58;;;;;;;13.14;55.95;100381.60;1734694;82;21134;-68
2021/04/21 05:16:36;;;;;;;12.93;10.35;;;;;;;13.30;55.42;100383.43;1735910;82;21270;-54
2021/04/21 05:19:51;;;;;;;13.48;10.28;;;;;;;13.45;55.07;100382.22;1729781;81;21112;-67
2021/04/21 05:22:57;;;;;;;12.00;9.93;;;;;;;13.58;54.18;100389.87;1740613;82;21119;-53
2021/04/21 05:26:23;;;;;;;14.40;10.35;;;;;;;13.76;54.03;100392.03;1738634;82;21304;-67
2021/04/21 05:29:40;;;;;;;12.03;9.70;;;;;;;13.92;54.15;100390.33;1709114;82;21131;-68
2021/04/21 05:33:02;;;;;;;17.10;11.22;;;;;;;14.11;53.50;100398.20;1778848;81;21159;-68
2021/04/21 05:35:55;;;;;;;12.93;10.25;;;;;;;14.29;53.53;100390.66;1739752;81;21294;-53
2021/04/21 05:38:43;;;;;;;10.48;9.20;;;;;;;14.41;52.88;100398.70;1754680;81;21122;-52
2021/04/21 05:41:43;;;;;;;14.93;11.18;;;;;;;14.51;52.65;100401.52;1731738;82;21323;-52
2021/04/21 05:44:53;;;;;;;12.20;9.93;;;;;;;14.65;52.92;100391.00;1718889;82;21142;-67
2021/04/21 05:47:48;;;;;;;12.23;9.70;;;;;;;14.80;52.38;100391.88;1743493;81;21249;-69
2021/04/21 05:50:45;;;;;;;11.05;9.85;;;;;;;14.99;52.18;100394.88;1712329;84;21160;-67
2021/04/21 05:53:29;;;;;;;11.18;9.58;;;;;;;15.16;51.90;100390.81;1728707;82;21098;-67
2021/04/21 05:56:38;;;;;;;12.75;9.50;;;;;;;15.34;51.42;100389.84;1750240;81;21134;-67
2021/04/21 05:59:32;;;;;;;12.10;8.83;;;;;;;15.49;51.37;100388.00;1678726;85;21741;-67
2021/04/21 06:02:00;;;;;;;10.48;9.00;;;;;;;15.76;50.16;100390.67;1755007;81;21551;-67
2021/04/21 06:04:28;;;;;;;12.95;8.53;;;;;;;15.96;49.79;100391.34;1783907;80;21297;-54
2021/04/21 06:07:09;;;;;;;9.98;7.75;;;;;;;16.08;49.62;100393.17;1740029;80;21146;-67
2021/04/21 06:09:39;;;;;;;10.68;8.20;;;;;;;16.14;48.25;100391.16;1748325;82;21143;-53
2021/04/21 06:12:16;;;;;;;10.43;8.95;;;;;;;16.18;48.18;100395.45;1740540;82;21162;-53
2021/04/21 06:14:44;;;;;;;10.03;8.53;;;;;;;16.27;47.94;100390.26;1725664;82;21509;-67
2021/04/21 06:17:12;;;;;;;9.38;7.87;;;;;;;16.43;48.10;100395.03;1720385;83;21162;-67
2021/04/21 06:19:43;;;;;;;9.15;7.60;;;;;;;16.41;47.10;100400.38;1738512;82;21616;-53
2021/04/21 06:22:12;;;;;;;10.08;7.55;;;;;;;16.61;46.44;100396.14;1737967;82;21608;-53
2021/04/21 06:24:41;;;;;;;8.40;7.20;;;;;;;16.70;46.24;100393.58;1738956;82;21165;-53
2021/04/21 06:27:12;;;;;;;8.83;7.12;;;;;;;16.89;46.15;100397.73;1725076;82;21166;-53
2021/04/21 06:29:40;;;;;;;9.23;7.47;;;;;;;17.11;46.03;100404.93;1732534;82;21127;-53
2021/04/21 06:32:15;;;;;;;8.25;7.22;;;;;;;17.20;45.81;100409.41;1746756;81;21186;-65
2021/04/21 06:34:44;;;;;;;9.60;7.83;;;;;;;17.22;44.99;100407.56;1747094;82;21178;-67
2021/04/21 06:37:12;;;;;;;11.38;7.60;;;;;;;17.30;44.99;100409.91;1758313;81;21106;-66
2021/04/21 06:39:40;;;;;;;8.75;7.42;;;;;;;17.45;45.46;100410.23;1753081;81;21353;-67
2021/04/21 06:42:08;;;;;;;9.28;7.87;;;;;;;17.58;45.44;100410.14;1756062;82;21178;-54
2021/04/21 06:44:46;;;;;;;8.68;7.45;;;;;;;17.75;44.90;100405.89;1755978;82;21179;-67
2021/04/21 06:47:22;;;;;;;9.20;7.58;;;;;;;17.88;44.04;100411.59;1753727;81;21574;-67
2021/04/21 06:50:04;;;;;;;9.33;7.05;;;;;;;17.98;44.43;100412.91;1752866;82;21184;-67
2021/04/21 06:52:40;;;;;;;8.90;7.67;;;;;;;18.13;43.82;100411.41;1756105;82;21202;-54
2021/04/21 06:55:16;;;;;;;8.20;6.95;;;;;;;18.06;43.10;100413.96;1756510;80;21138;-67
2021/04/21 06:57:43;;;;;;;7.80;6.35;;;;;;;18.13;42.71;100423.39;1751428;82;21087;-53
2021/04/21 07:00:21;;;;;;;7.70;5.90;;;;;;;18.16;42.64;100416.60;1748676;82;21126;-54
2021/04/21 07:02:54;;;;;;;8.50;7.40;;;;;;;18.34;42.01;100420.25;1748793;82;21162;-67
2021/04/21 07:05:40;;;;;;;7.47;6.35;;;;;;;18.40;41.43;100423.98;1751121;81;21149;-68
2021/04/21 07:08:17;;;;;;;7.08;5.90;;;;;;;18.62;41.17;100415.50;1720022;83;21186;-54
2021/04/21 07:10:57;;;;;;;8.15;6.00;;;;;;;18.84;40.55;100419.38;1720268;83;21599;-54
2021/04/21 07:13:37;;;;;;;7.30;5.22;;;;;;;19.01;39.96;100411.95;1756273;81;21292;-54
2021/04/21 07:16:09;;;;;;;7.60;5.20;;;;;;;19.12;39.43;100413.65;1751675;81;21550;-54
2021/04/21 07:18:39;;;;;;;6.55;5.00;;;;;;;19.24;39.39;100414.86;1748515;82;21111;-67
2021/04/21 07:21:08;;;;;;;6.25;4.85;;;;;;;19.36;38.29;100417.42;1749005;82;21538;-67
2021/04/21 07:23:38;;;;;;;5.92;4.78;;;;;;;19.49;38.81;100415.47;1750656;82;21219;-67
2021/04/21 07:26:06;;;;;;;4.75;4.10;;;;;;;19.68;37.91;100418.97;1726429;83;21171;-55
2021/04/21 07:28:36;;;;;;;6.10;4.58;;;;;;;19.80;36.63;100420.16;1726460;82;21154;-54
2021/04/21 07:31:13;;;;;;;6.17;4.35;;;;;;;19.91;35.45;100423.19;1726348;83;21099;-54
2021/04/21 07:33:43;;;;;;;6.35;4.55;;;;;;;19.93;36.46;100420.91;1746321;82;21183;-54
2021/04/21 07:36:17;;;;;;;7.60;4.17;;;;;;;20.15;35.51;100426.87;1756046;82;21162;-67
2021/04/21 07:38:49;;;;;;;6.83;3.52;;;;;;;20.15;34.64;100430.03;1755956;82;21146;-54
2021/04/21 07:41:40;;;;;;;6.62;4.15;;;;;;;20.04;33.98;100432.77;1756411;81;21577;-54
2021/04/21 07:44:37;;;;;;;6.03;4.50;;;;;;;20.05;34.67;100433.16;1758519;81;21138;-67
2021/04/21 07:47:10;;;;;;;4.92;4.20;;;;;;;20.16;35.45;100437.95;1759256;81;21162;-67
2021/04/21 07:49:44;;;;;;;5.33;4.05;;;;;;;20.19;34.25;100433.78;1758882;81;21184;-54
2021/04/21 07:52:26;;;;;;;5.55;4.53;;;;;;;20.30;34.51;100435.04;1756697;81;21155;-67
2021/04/21 07:55:14;;;;;;;4.92;3.98;;;;;;;20.50;34.68;100440.22;1756026;82;21288;-66
2021/04/21 07:57:45;;;;;;;4.78;3.67;;;;;;;20.61;33.65;100439.64;1756016;81;21119;-54
2021/04/21 08:00:25;;;;;;;4.55;3.67;;;;;;;20.77;33.42;100440.16;1755647;82;21118;-67
2021/04/21 08:02:53;;;;;;;5.08;3.98;;;;;;;20.73;33.12;100438.59;1756006;81;21134;-54
2021/04/21 08:05:20;;;;;;;5.15;3.95;;;;;;;20.74;32.69;100436.31;1756409;82;21669;-54
2021/04/21 08:08:00;;;;;;;6.85;4.62;;;;;;;20.79;33.18;100434.26;1756164;82;21174;-54
2021/04/21 08:10:34;;;;;;;5.20;3.97;;;;;;;20.87;33.34;100439.20;1755548;81;21146;-54
2021/04/21 08:13:02;;;;;;;5.10;3.87;;;;;;;21.03;32.88;100437.89;1758872;81;21300;-54
2021/04/21 08:15:34;;;;;;;5.87;3.98;;;;;;;21.19;31.97;100435.22;1753983;82;21542;-66
2021/04/21 08:18:10;;;;;;;7.25;4.25;;;;;;;21.33;31.76;100439.79;1752052;82;21615;-66
2021/04/21 08:20:43;;;;;;;7.70;5.00;;;;;;;21.42;31.52;100439.73;1741460;82;21144;-54
2021/04/21 08:23:17;;;;;;;5.03;3.75;;;;;;;21.48;31.94;100441.61;1695576;84;21116;-54
2021/04/21 08:25:45;;;;;;;5.78;4.05;;;;;;;21.84;32.27;100442.28;1689867;84;21155;-67
2021/04/21 08:28:13;;;;;;;4.53;3.20;;;;;;;22.35;30.81;100432.54;1734403;82;21147;-54
2021/04/21 08:30:55;;;;;;;4.22;3.00;;;;;;;22.24;28.86;100432.32;1724936;82;21163;-66
2021/04/21 08:33:23;;;;;;;3.65;3.05;;;;;;;22.17;29.77;100437.20;1712727;84;21725;-54
2021/04/21 08:35:51;;;;;;;3.92;2.87;;;;;;;22.49;30.61;100437.08;1712817;84;21155;-54
2021/04/21 08:38:19;;;;;;;4.55;3.27;;;;;;;22.70;29.36;100428.18;1747636;82;21130;-54
2021/04/21 08:40:47;;;;;;;5.30;3.27;;;;;;;22.72;29.50;100430.78;1735898;82;21167;-55
2021/04/21 08:43:17;;;;;;;3.72;3.10;;;;;;;22.78;28.96;100433.05;1727903;82;21182;-67
2021/04/21 08:45:45;;;;;;;5.33;3.17;;;;;;;22.90;28.06;100427.88;1744399;82;21281;-54
2021/04/21 08:48:13;;;;;;;4.33;3.15;;;;;;;22.88;28.88;100432.87;1747856;82;21261;-66
2021/04/21 08:50:42;;;;;;;4.00;3.20;;;;;;;22.91;28.69;100434.98;1753824;81;21593;-66
2021/04/21 08:53:10;;;;;;;4.60;2.95;;;;;;;22.91;28.42;100425.12;1700549;82;21178;-66
2021/04/21 08:55:39;;;;;;;4.97;3.37;;;;;;;23.02;28.81;100421.25;1746599;82;21603;-54
2021/04/21 08:58:10;;;;;;;4.62;3.30;;;;;;;23.14;28.42;100424.11;1744867;82;21146;-54
2021/04/21 09:00:41;;;;;;;4.22;2.92;;;;;;;23.22;27.92;100425.86;1734748;82;21154;-66
2021/04/21 09:03:10;;;;;;;4.85;3.17;;;;;;;23.29;27.89;100426.31;1730189;82;21139;-66
2021/04/21 09:05:38;;;;;;;4.55;3.37;;;;;;;23.25;27.30;100416.72;1718109;82;21619;-66
2021/04/21 09:08:08;;;;;;;3.67;2.77;;;;;;;23.18;27.13;100426.48;1724087;82;21634;-66
2021/04/21 09:10:37;;;;;;;4.08;2.80;;;;;;;23.12;26.88;100424.22;1727838;82;21599;-66
2021/04/21 09:13:06;;;;;;;3.55;2.77;;;;;;;23.32;27.35;100423.42;1732077;82;21593;-66
2021/04/21 09:15:34;;;;;;;3.77;2.77;;;;;;;23.48;26.74;100423.27;1723843;82;21653;-66
2021/04/21 09:18:03;;;;;;;3.20;2.10;;;;;;;23.56;26.77;100420.95;1727195;82;21328;-55
2021/04/21 09:20:31;;;;;;;3.80;2.80;;;;;;;23.79;26.77;100416.34;1730080;82;21135;-66
2021/04/21 09:23:14;;;;;;;4.70;2.70;;;;;;;24.03;26.28;100421.45;1737009;82;21272;-54
2021/04/21 09:25:47;;;;;;;8.85;2.80;;;;;;;23.94;25.94;100428.75;1739836;82;21139;-55
2021/04/21 14:13:49;;;;;;;2.60;2.20;;;;;;;18.93;39.12;100486.11;1788749;79;28789;-66
2021/04/21 14:16:17;;;;;;;3.05;1.92;;;;;;;18.71;39.35;100501.27;1759940;81;21137;-66
2021/04/21 14:18:44;;;;;;;2.52;1.85;;;;;;;18.55;39.83;100491.73;1725002;81;21116;-50
2021/04/21 14:21:13;;;;;;;2.87;1.92;;;;;;;18.34;39.97;100498.86;1742034;82;21539;-50
2021/04/21 14:23:41;;;;;;;2.22;1.50;;;;;;;18.33;40.19;100497.13;1742098;81;21207;-65
2021/04/21 14:26:09;;;;;;;4.85;1.67;;;;;;;18.33;40.68;100488.28;1737110;82;21140;-65
2021/04/21 14:28:39;;;;;;;2.02;1.47;;;;;;;18.50;40.25;100491.09;1727174;82;21605;-66
2021/04/21 14:31:08;;;;;;;4.65;2.10;;;;;;;18.65;39.68;100488.21;1726472;82;21198;-66
2021/04/21 14:33:36;;;;;;;2.20;1.70;;;;;;;18.76;39.69;100482.88;1727665;82;21597;-51
2021/04/21 14:36:07;;;;;;;2.30;1.57;;;;;;;18.86;39.93;100488.17;1728874;82;21152;-51
2021/04/21 14:38:34;;;;;;;1.92;1.30;;;;;;;18.93;39.08;100496.77;1724640;82;21169;-53
2021/04/21 14:41:02;;;;;;;2.67;1.70;;;;;;;18.94;39.08;100502.51;1740494;82;21179;-52
2021/04/21 14:43:32;;;;;;;3.40;1.87;;;;;;;18.78;38.27;100511.64;1736201;82;21159;-52
2021/04/21 14:46:00;;;;;;;3.08;2.25;;;;;;;18.78;38.69;100506.30;1725374;82;21175;-54
2021/04/21 14:48:28;;;;;;;4.33;1.92;;;;;;;18.75;38.72;100503.32;1719420;83;21170;-67
2021/04/21 14:50:56;;;;;;;2.72;1.90;;;;;;;18.92;38.54;100505.23;1723062;83;21304;-67
2021/04/21 14:53:24;;;;;;;2.50;1.50;;;;;;;19.11;38.11;100496.43;1732589;83;21283;-67
2021/04/21 14:55:54;;;;;;;2.52;1.55;;;;;;;19.17;37.57;100506.34;1746221;81;21131;-67
2021/04/21 14:58:23;;;;;;;2.20;1.90;;;;;;;19.22;37.64;100514.60;1763374;80;21276;-66
2021/04/21 15:00:51;;;;;;;2.25;1.42;;;;;;;19.20;37.34;100524.02;1753169;81;21150;-67
2021/04/21 15:03:19;;;;;;;2.80;2.02;;;;;;;19.02;37.68;100525.25;1754582;81;21251;-52
2021/04/21 15:05:48;;;;;;;4.08;1.80;;;;;;;18.82;38.65;100522.12;1752490;81;21291;-67
2021/04/21 15:08:16;;;;;;;2.50;1.98;;;;;;;18.66;39.39;100528.59;1753163;81;21122;-67
2021/04/21 15:10:44;;;;;;;2.52;2.12;;;;;;;18.38;40.34;100536.44;1747227;81;21102;-66
2021/04/21 15:13:12;;;;;;;6.08;4.05;;;;;;;18.23;40.62;100529.11;1734460;81;21357;-67
2021/04/21 15:15:40;;;;;;;3.87;2.60;;;;;;;18.12;40.99;100545.52;1735234;83;21560;-67
2021/04/21 15:18:07;;;;;;;5.05;2.10;;;;;;;18.00;41.52;100534.05;1700186;84;21650;-66
2021/04/21 15:20:35;;;;;;;3.15;2.00;;;;;;;17.91;41.94;100543.23;1706323;83;21270;-66
2021/04/21 15:23:03;;;;;;;2.92;2.10;;;;;;;17.78;42.26;100545.52;1702608;84;21206;-66
2021/04/21 15:25:33;;;;;;;2.67;2.12;;;;;;;17.71;42.54;100544.02;1672417;84;21146;-53
2021/04/21 15:28:01;;;;;;;3.20;2.30;;;;;;;17.60;42.84;100545.34;1711916;83;21159;-52
2021/04/21 15:30:29;;;;;;;2.95;2.17;;;;;;;17.56;42.87;100551.70;1705398;83;21603;-53
2021/04/21 15:32:57;;;;;;;3.08;2.02;;;;;;;17.50;42.79;100549.28;1710213;82;21548;-52
2021/04/21 15:35:26;;;;;;;5.92;2.15;;;;;;;17.38;42.61;100554.12;1713579;83;21182;-67
2021/04/21 15:37:53;;;;;;;3.72;2.27;;;;;;;17.38;42.79;100551.95;1707730;83;21148;-51
2021/04/21 15:40:23;;;;;;;4.30;2.80;;;;;;;17.39;43.08;100551.88;1727043;83;21171;-66
2021/04/21 15:42:52;;;;;;;7.33;3.62;;;;;;;17.38;43.30;100553.28;1737020;82;21611;-51
2021/04/21 15:45:22;;;;;;;5.60;2.40;;;;;;;17.38;43.55;100551.95;1722101;82;21959;-51
2021/04/21 15:47:50;;;;;;;3.58;2.52;;;;;;;17.37;43.85;100552.88;1700892;84;21173;-52
2021/04/21 15:50:19;;;;;;;6.53;2.87;;;;;;;17.61;43.95;100555.06;1673345;84;21157;-51
2021/04/21 15:52:47;;;;;;;4.22;2.52;;;;;;;17.39;44.21;100565.18;1727252;83;21148;-66
2021/04/21 15:55:18;;;;;;;4.80;3.10;;;;;;;17.39;44.47;100555.87;1727060;83;21606;-66
2021/04/21 15:57:48;;;;;;;4.08;2.95;;;;;;;17.34;44.83;100552.52;1727286;83;21566;-66
2021/04/21 16:00:20;;;;;;;4.37;3.02;;;;;;;17.42;44.99;100559.34;1733574;82;21686;-51
2021/04/21 16:02:58;;;;;;;5.83;3.08;;;;;;;17.44;45.22;100558.34;1739918;82;21161;-51
2021/04/21 16:05:30;;;;;;;4.30;3.27;;;;;;;17.47;45.42;100558.23;1708836;82;21152;-66
2021/04/21 16:07:58;;;;;;;3.65;2.70;;;;;;;17.40;46.13;100563.41;1704051;84;21128;-51
2021/04/21 16:10:28;;;;;;;4.72;2.35;;;;;;;17.23;46.60;100569.33;1705693;83;21287;-66
2021/04/21 16:12:56;;;;;;;4.55;3.17;;;;;;;17.17;46.63;100565.11;1724543;83;21147;-51
2021/04/21 16:15:24;;;;;;;3.50;2.60;;;;;;;17.12;46.69;100562.23;1736315;83;21195;-52
2021/04/21 16:17:52;;;;;;;3.92;3.10;;;;;;;17.00;46.83;100559.09;1768173;80;21118;-66
2021/04/21 16:20:20;;;;;;;4.70;3.72;;;;;;;16.90;46.97;100566.95;1768198;80;21149;-66
2021/04/21 16:22:48;;;;;;;30.20;26.95;;;;;;;16.84;47.01;100557.86;1768242;80;21586;-66
2021/04/21 16:25:17;;;;;;;286.55;227.95;;;;;;;16.81;47.23;100560.18;1710399;82;21602;-51
2021/04/21 16:27:47;;;;;;;253.73;176.45;;;;;;;16.76;47.43;100557.70;1741557;82;21619;-51
2021/04/21 16:30:19;;;;;;;140.03;95.38;;;;;;;16.70;47.76;100559.68;1741947;82;21563;-66
2021/04/21 16:32:47;;;;;;;383.93;185.25;;;;;;;16.65;47.64;100555.39;1717625;82;21183;-67
2021/04/21 16:35:16;;;;;;;208.20;96.95;;;;;;;16.61;47.71;100556.89;1736529;82;21600;-67
2021/04/21 16:37:43;;;;;;;80.72;40.23;;;;;;;17.60;45.50;100556.43;1756867;82;21199;-67
2021/04/21 16:40:13;;;;;;;44.90;21.52;;;;;;;16.72;47.03;100552.52;1751907;82;21103;-66
2021/04/21 16:42:41;;;;;;;51.85;22.95;;;;;;;16.50;47.60;100559.45;1741365;82;21635;-67
2021/04/21 16:45:10;;;;;;;32.00;15.58;;;;;;;16.42;47.90;100554.85;1741517;82;21183;-66